sensor_id;sensor_type;location;lat;lon;timestamp;temperature;humidity
12470;DHT22;36499;46.484;13.832;2023-04-09T00:01:05;3.50;99.90
12470;DHT22;36499;46.484;13.832;2023-04-09T00:03:35;3.40;99.90
12470;DHT22;36499;46.484;13.832;2023-04-09T00:06:03;3.40;99.90
12470;DHT22;36499;46.484;13.832;2023-04-09T00:08:31;3.40;99.90
12470;DHT22;36499;46.484;13.832;2023-04-09T00:10:58;3.40;99.90
12470;DHT22;36499;46.484;13.832;2023-04-09T00:13:26;3.40;99.90
12470;DHT22;36499;46.484;13.832;2023-04-09T00:15:53;3.40;99.90
12470;DHT22;36499;46.484;13.832;2023-04-09T00:18:20;3.30;99.90
12470;DHT22;36499;46.484;13.832;2023-04-09T00:20:48;3.30;99.90
12470;DHT22;36499;46.484;13.832;2023-04-09T00:23:15;3.20;99.90
12470;DHT22;36499;46.484;13.832;2023-04-09T00:25:43;3.20;99.90
12470;DHT22;36499;46.484;13.832;2023-04-09T00:28:10;3.10;99.90
12470;DHT22;36499;46.484;13.832;2023-04-09T00:30:37;3.10;99.90
12470;DHT22;36499;46.484;13.832;2023-04-09T00:33:04;3.10;99.90
12470;DHT22;36499;46.484;13.832;2023-04-09T00:35:31;3.10;99.90
12470;DHT22;36499;46.484;13.832;2023-04-09T00:37:59;3.10;99.90
12470;DHT22;36499;46.484;13.832;2023-04-09T00:40:26;3.00;99.90
12470;DHT22;36499;46.484;13.832;2023-04-09T00:42:53;3.00;99.90
12470;DHT22;36499;46.484;13.832;2023-04-09T00:45:22;3.00;99.90
12470;DHT22;36499;46.484;13.832;2023-04-09T00:47:49;3.00;99.90
12470;DHT22;36499;46.484;13.832;2023-04-09T00:50:16;3.00;99.90
12470;DHT22;36499;46.484;13.832;2023-04-09T00:52:44;3.00;99.90
12470;DHT22;36499;46.484;13.832;2023-04-09T00:55:12;3.00;99.90
12470;DHT22;36499;46.484;13.832;2023-04-09T00:57:41;3.00;99.90
12470;DHT22;36499;46.484;13.832;2023-04-09T01:00:08;3.00;99.90
12470;DHT22;36499;46.484;13.832;2023-04-09T01:02:37;2.90;99.90
12470;DHT22;36499;46.484;13.832;2023-04-09T01:05:05;2.90;99.90
12470;DHT22;36499;46.484;13.832;2023-04-09T01:07:52;2.90;99.90
12470;DHT22;36499;46.484;13.832;2023-04-09T01:10:34;2.90;99.90
12470;DHT22;36499;46.484;13.832;2023-04-09T01:13:11;2.80;99.90
12470;DHT22;36499;46.484;13.832;2023-04-09T01:15:46;2.80;99.90
12470;DHT22;36499;46.484;13.832;2023-04-09T01:18:22;2.80;99.90
12470;DHT22;36499;46.484;13.832;2023-04-09T01:20:58;2.70;99.90
12470;DHT22;36499;46.484;13.832;2023-04-09T01:23:34;2.70;99.90
12470;DHT22;36499;46.484;13.832;2023-04-09T01:26:17;2.80;99.90
12470;DHT22;36499;46.484;13.832;2023-04-09T01:28:56;2.80;99.90
12470;DHT22;36499;46.484;13.832;2023-04-09T01:31:28;2.80;99.90
12470;DHT22;36499;46.484;13.832;2023-04-09T01:33:58;2.70;99.90
12470;DHT22;36499;46.484;13.832;2023-04-09T01:36:27;2.70;99.90
12470;DHT22;36499;46.484;13.832;2023-04-09T01:38:57;2.70;99.90
12470;DHT22;36499;46.484;13.832;2023-04-09T01:41:27;2.70;99.90
12470;DHT22;36499;46.484;13.832;2023-04-09T01:44:00;2.70;99.90
12470;DHT22;36499;46.484;13.832;2023-04-09T01:46:30;2.70;99.90
12470;DHT22;36499;46.484;13.832;2023-04-09T01:48:59;2.70;99.90
12470;DHT22;36499;46.484;13.832;2023-04-09T01:51:28;2.70;99.90
12470;DHT22;36499;46.484;13.832;2023-04-09T01:53:57;2.60;99.90
12470;DHT22;36499;46.484;13.832;2023-04-09T01:56:24;2.60;99.90
12470;DHT22;36499;46.484;13.832;2023-04-09T01:58:51;2.60;99.90
12470;DHT22;36499;46.484;13.832;2023-04-09T02:01:25;2.60;99.90
12470;DHT22;36499;46.484;13.832;2023-04-09T02:04:01;2.60;99.90
12470;DHT22;36499;46.484;13.832;2023-04-09T02:06:35;2.60;99.90
12470;DHT22;36499;46.484;13.832;2023-04-09T02:09:07;2.60;99.90
12470;DHT22;36499;46.484;13.832;2023-04-09T02:11:37;2.60;99.90
12470;DHT22;36499;46.484;13.832;2023-04-09T02:14:06;2.60;99.90
12470;DHT22;36499;46.484;13.832;2023-04-09T02:16:37;2.60;99.90
12470;DHT22;36499;46.484;13.832;2023-04-09T02:19:06;2.60;99.90
12470;DHT22;36499;46.484;13.832;2023-04-09T02:21:34;2.50;99.90
12470;DHT22;36499;46.484;13.832;2023-04-09T02:24:01;2.60;99.90
12470;DHT22;36499;46.484;13.832;2023-04-09T02:26:28;2.60;99.90
12470;DHT22;36499;46.484;13.832;2023-04-09T02:28:55;2.60;99.90
12470;DHT22;36499;46.484;13.832;2023-04-09T02:31:22;2.50;99.90
12470;DHT22;36499;46.484;13.832;2023-04-09T02:33:50;2.50;99.90
12470;DHT22;36499;46.484;13.832;2023-04-09T02:36:18;2.50;99.90
12470;DHT22;36499;46.484;13.832;2023-04-09T02:38:45;2.40;99.90
12470;DHT22;36499;46.484;13.832;2023-04-09T02:41:12;2.50;99.90
12470;DHT22;36499;46.484;13.832;2023-04-09T02:43:39;2.50;99.90
12470;DHT22;36499;46.484;13.832;2023-04-09T02:46:06;2.50;99.90
12470;DHT22;36499;46.484;13.832;2023-04-09T02:48:33;2.50;99.90
12470;DHT22;36499;46.484;13.832;2023-04-09T02:51:04;2.40;99.90
12470;DHT22;36499;46.484;13.832;2023-04-09T02:53:31;2.40;99.90
12470;DHT22;36499;46.484;13.832;2023-04-09T02:55:58;2.40;99.90
12470;DHT22;36499;46.484;13.832;2023-04-09T02:58:25;2.40;99.90
12470;DHT22;36499;46.484;13.832;2023-04-09T03:00:52;2.30;99.90
12470;DHT22;36499;46.484;13.832;2023-04-09T03:03:19;2.30;99.90
12470;DHT22;36499;46.484;13.832;2023-04-09T03:05:46;2.40;99.90
12470;DHT22;36499;46.484;13.832;2023-04-09T03:08:14;2.40;99.90
12470;DHT22;36499;46.484;13.832;2023-04-09T03:10:41;2.40;99.90
12470;DHT22;36499;46.484;13.832;2023-04-09T03:13:09;2.50;99.90
12470;DHT22;36499;46.484;13.832;2023-04-09T03:15:36;2.50;99.90
12470;DHT22;36499;46.484;13.832;2023-04-09T03:18:03;2.50;99.90
12470;DHT22;36499;46.484;13.832;2023-04-09T03:20:30;2.50;99.90
12470;DHT22;36499;46.484;13.832;2023-04-09T03:22:58;2.60;99.90
12470;DHT22;36499;46.484;13.832;2023-04-09T03:25:26;2.70;99.90
12470;DHT22;36499;46.484;13.832;2023-04-09T03:27:53;2.60;99.90
12470;DHT22;36499;46.484;13.832;2023-04-09T03:30:21;2.60;99.90
12470;DHT22;36499;46.484;13.832;2023-04-09T03:32:48;2.60;99.90
12470;DHT22;36499;46.484;13.832;2023-04-09T03:35:15;2.60;99.90
12470;DHT22;36499;46.484;13.832;2023-04-09T03:37:42;2.60;99.90
12470;DHT22;36499;46.484;13.832;2023-04-09T03:40:10;2.60;99.90
12470;DHT22;36499;46.484;13.832;2023-04-09T03:42:41;2.60;99.90
12470;DHT22;36499;46.484;13.832;2023-04-09T03:45:08;2.60;99.90
12470;DHT22;36499;46.484;13.832;2023-04-09T03:47:36;2.60;99.90
12470;DHT22;36499;46.484;13.832;2023-04-09T03:50:04;2.60;99.90
12470;DHT22;36499;46.484;13.832;2023-04-09T03:52:31;2.60;99.90
12470;DHT22;36499;46.484;13.832;2023-04-09T03:54:58;2.60;99.90
12470;DHT22;36499;46.484;13.832;2023-04-09T03:57:26;2.60;99.90
12470;DHT22;36499;46.484;13.832;2023-04-09T03:59:54;2.60;99.90
12470;DHT22;36499;46.484;13.832;2023-04-09T04:02:21;2.50;99.90
12470;DHT22;36499;46.484;13.832;2023-04-09T04:04:51;2.50;99.90
12470;DHT22;36499;46.484;13.832;2023-04-09T04:07:18;2.40;99.90
12470;DHT22;36499;46.484;13.832;2023-04-09T04:09:45;2.40;99.90
12470;DHT22;36499;46.484;13.832;2023-04-09T04:12:12;2.40;99.90
12470;DHT22;36499;46.484;13.832;2023-04-09T04:14:39;2.50;99.90
12470;DHT22;36499;46.484;13.832;2023-04-09T04:17:07;2.50;99.90
12470;DHT22;36499;46.484;13.832;2023-04-09T04:19:36;2.50;99.90
12470;DHT22;36499;46.484;13.832;2023-04-09T04:22:03;2.50;99.90
12470;DHT22;36499;46.484;13.832;2023-04-09T04:24:30;2.50;99.90
12470;DHT22;36499;46.484;13.832;2023-04-09T04:26:57;2.60;99.90
12470;DHT22;36499;46.484;13.832;2023-04-09T04:29:24;2.50;99.90
12470;DHT22;36499;46.484;13.832;2023-04-09T04:31:52;2.50;99.90
12470;DHT22;36499;46.484;13.832;2023-04-09T04:34:21;2.50;99.90
12470;DHT22;36499;46.484;13.832;2023-04-09T04:36:48;2.40;99.90
12470;DHT22;36499;46.484;13.832;2023-04-09T04:39:15;2.50;99.90
12470;DHT22;36499;46.484;13.832;2023-04-09T04:41:42;2.50;99.90
12470;DHT22;36499;46.484;13.832;2023-04-09T04:44:09;2.50;99.90
12470;DHT22;36499;46.484;13.832;2023-04-09T04:46:36;2.50;99.90
12470;DHT22;36499;46.484;13.832;2023-04-09T04:49:03;2.60;99.90
12470;DHT22;36499;46.484;13.832;2023-04-09T04:51:31;2.60;99.90
12470;DHT22;36499;46.484;13.832;2023-04-09T04:53:58;2.50;99.90
12470;DHT22;36499;46.484;13.832;2023-04-09T04:56:25;2.50;99.90
12470;DHT22;36499;46.484;13.832;2023-04-09T04:58:52;2.60;99.90
12470;DHT22;36499;46.484;13.832;2023-04-09T05:01:19;2.60;99.90
12470;DHT22;36499;46.484;13.832;2023-04-09T05:03:46;2.60;99.90
12470;DHT22;36499;46.484;13.832;2023-04-09T05:06:13;2.60;99.90
12470;DHT22;36499;46.484;13.832;2023-04-09T05:08:42;2.60;99.90
12470;DHT22;36499;46.484;13.832;2023-04-09T05:11:10;2.70;99.90
12470;DHT22;36499;46.484;13.832;2023-04-09T05:13:39;2.70;99.90
12470;DHT22;36499;46.484;13.832;2023-04-09T05:16:06;2.70;99.90
12470;DHT22;36499;46.484;13.832;2023-04-09T05:18:33;2.70;99.90
12470;DHT22;36499;46.484;13.832;2023-04-09T05:21:01;2.60;99.90
12470;DHT22;36499;46.484;13.832;2023-04-09T05:23:28;2.60;99.90
12470;DHT22;36499;46.484;13.832;2023-04-09T05:25:56;2.60;99.90
12470;DHT22;36499;46.484;13.832;2023-04-09T05:28:23;2.60;99.90
12470;DHT22;36499;46.484;13.832;2023-04-09T05:30:50;2.60;99.90
12470;DHT22;36499;46.484;13.832;2023-04-09T05:33:17;2.60;99.90
12470;DHT22;36499;46.484;13.832;2023-04-09T05:35:44;2.70;99.90
12470;DHT22;36499;46.484;13.832;2023-04-09T05:38:12;2.70;99.90
12470;DHT22;36499;46.484;13.832;2023-04-09T05:40:39;2.80;99.90
12470;DHT22;36499;46.484;13.832;2023-04-09T05:43:08;2.90;99.90
12470;DHT22;36499;46.484;13.832;2023-04-09T05:45:35;2.90;99.90
12470;DHT22;36499;46.484;13.832;2023-04-09T05:48:02;2.90;99.90
12470;DHT22;36499;46.484;13.832;2023-04-09T05:50:29;3.00;99.90
12470;DHT22;36499;46.484;13.832;2023-04-09T05:52:56;3.10;99.90
12470;DHT22;36499;46.484;13.832;2023-04-09T05:55:23;3.10;99.90
12470;DHT22;36499;46.484;13.832;2023-04-09T05:57:52;3.10;99.90
12470;DHT22;36499;46.484;13.832;2023-04-09T06:00:20;3.10;99.90
12470;DHT22;36499;46.484;13.832;2023-04-09T06:02:47;3.10;99.90
12470;DHT22;36499;46.484;13.832;2023-04-09T06:05:15;3.10;99.90
12470;DHT22;36499;46.484;13.832;2023-04-09T06:07:42;3.20;99.90
12470;DHT22;36499;46.484;13.832;2023-04-09T06:10:09;3.20;99.90
12470;DHT22;36499;46.484;13.832;2023-04-09T06:12:36;3.50;99.90
12470;DHT22;36499;46.484;13.832;2023-04-09T06:15:04;3.80;99.90
12470;DHT22;36499;46.484;13.832;2023-04-09T06:17:33;3.90;99.90
12470;DHT22;36499;46.484;13.832;2023-04-09T06:20:00;3.90;99.90
12470;DHT22;36499;46.484;13.832;2023-04-09T06:22:27;3.90;99.90
12470;DHT22;36499;46.484;13.832;2023-04-09T06:24:54;3.90;99.90
12470;DHT22;36499;46.484;13.832;2023-04-09T06:27:21;3.80;99.90
12470;DHT22;36499;46.484;13.832;2023-04-09T06:29:48;3.80;99.90
12470;DHT22;36499;46.484;13.832;2023-04-09T06:32:15;3.80;99.90
12470;DHT22;36499;46.484;13.832;2023-04-09T06:34:44;3.70;99.90
12470;DHT22;36499;46.484;13.832;2023-04-09T06:37:11;3.70;99.90
12470;DHT22;36499;46.484;13.832;2023-04-09T06:39:39;3.70;99.90
12470;DHT22;36499;46.484;13.832;2023-04-09T06:42:06;3.70;99.90
12470;DHT22;36499;46.484;13.832;2023-04-09T06:44:34;3.70;99.90
12470;DHT22;36499;46.484;13.832;2023-04-09T06:47:01;3.70;99.90
12470;DHT22;36499;46.484;13.832;2023-04-09T06:49:28;3.70;99.90
12470;DHT22;36499;46.484;13.832;2023-04-09T06:51:57;3.80;99.90
12470;DHT22;36499;46.484;13.832;2023-04-09T06:54:24;3.80;99.90
12470;DHT22;36499;46.484;13.832;2023-04-09T06:56:51;3.90;99.90
12470;DHT22;36499;46.484;13.832;2023-04-09T06:59:18;3.90;99.90
12470;DHT22;36499;46.484;13.832;2023-04-09T07:01:45;3.90;99.90
12470;DHT22;36499;46.484;13.832;2023-04-09T07:04:12;4.00;99.90
12470;DHT22;36499;46.484;13.832;2023-04-09T07:06:39;4.00;99.90
12470;DHT22;36499;46.484;13.832;2023-04-09T07:09:07;4.10;99.90
12470;DHT22;36499;46.484;13.832;2023-04-09T07:11:35;4.10;99.90
12470;DHT22;36499;46.484;13.832;2023-04-09T07:14:02;4.20;99.90
12470;DHT22;36499;46.484;13.832;2023-04-09T07:16:29;4.20;99.90
12470;DHT22;36499;46.484;13.832;2023-04-09T07:18:56;4.20;99.90
12470;DHT22;36499;46.484;13.832;2023-04-09T07:21:23;4.20;99.90
12470;DHT22;36499;46.484;13.832;2023-04-09T07:23:50;4.30;99.90
12470;DHT22;36499;46.484;13.832;2023-04-09T07:26:19;4.30;99.90
12470;DHT22;36499;46.484;13.832;2023-04-09T07:28:46;4.40;99.90
12470;DHT22;36499;46.484;13.832;2023-04-09T07:31:13;4.50;99.90
12470;DHT22;36499;46.484;13.832;2023-04-09T07:33:40;4.60;99.90
12470;DHT22;36499;46.484;13.832;2023-04-09T07:36:08;4.70;99.90
12470;DHT22;36499;46.484;13.832;2023-04-09T07:38:35;4.90;99.90
12470;DHT22;36499;46.484;13.832;2023-04-09T07:41:02;5.00;99.90
12470;DHT22;36499;46.484;13.832;2023-04-09T07:43:31;5.10;99.90
12470;DHT22;36499;46.484;13.832;2023-04-09T07:45:58;5.20;99.90
12470;DHT22;36499;46.484;13.832;2023-04-09T07:48:25;5.30;99.90
12470;DHT22;36499;46.484;13.832;2023-04-09T07:50:53;5.30;99.90
12470;DHT22;36499;46.484;13.832;2023-04-09T07:53:20;5.40;99.90
12470;DHT22;36499;46.484;13.832;2023-04-09T07:55:48;5.40;99.90
12470;DHT22;36499;46.484;13.832;2023-04-09T07:58:16;5.50;99.90
12470;DHT22;36499;46.484;13.832;2023-04-09T08:00:44;5.60;99.90
12470;DHT22;36499;46.484;13.832;2023-04-09T08:03:12;5.60;99.90
12470;DHT22;36499;46.484;13.832;2023-04-09T08:05:39;5.70;99.90
12470;DHT22;36499;46.484;13.832;2023-04-09T08:08:06;5.80;99.90
12470;DHT22;36499;46.484;13.832;2023-04-09T08:10:33;5.90;99.90
12470;DHT22;36499;46.484;13.832;2023-04-09T08:13:00;6.00;99.90
12470;DHT22;36499;46.484;13.832;2023-04-09T08:15:27;6.10;99.90
12470;DHT22;36499;46.484;13.832;2023-04-09T08:17:55;6.20;99.90
12470;DHT22;36499;46.484;13.832;2023-04-09T08:20:22;6.20;99.90
12470;DHT22;36499;46.484;13.832;2023-04-09T08:22:50;6.40;99.90
12470;DHT22;36499;46.484;13.832;2023-04-09T08:25:17;6.50;99.90
12470;DHT22;36499;46.484;13.832;2023-04-09T08:27:44;6.50;99.90
12470;DHT22;36499;46.484;13.832;2023-04-09T08:30:11;6.40;99.90
12470;DHT22;36499;46.484;13.832;2023-04-09T08:32:38;6.50;99.90
12470;DHT22;36499;46.484;13.832;2023-04-09T08:35:08;6.50;99.90
12470;DHT22;36499;46.484;13.832;2023-04-09T08:37:35;6.50;99.90
12470;DHT22;36499;46.484;13.832;2023-04-09T08:40:03;6.60;99.90
12470;DHT22;36499;46.484;13.832;2023-04-09T08:42:30;6.60;99.90
12470;DHT22;36499;46.484;13.832;2023-04-09T08:45:02;6.60;99.90
12470;DHT22;36499;46.484;13.832;2023-04-09T08:47:31;6.70;99.90
12470;DHT22;36499;46.484;13.832;2023-04-09T08:50:02;6.50;99.90
12470;DHT22;36499;46.484;13.832;2023-04-09T08:52:33;6.40;99.90
12470;DHT22;36499;46.484;13.832;2023-04-09T08:55:01;6.40;99.90
12470;DHT22;36499;46.484;13.832;2023-04-09T08:57:28;6.50;99.90
12470;DHT22;36499;46.484;13.832;2023-04-09T08:59:55;6.60;99.90
12470;DHT22;36499;46.484;13.832;2023-04-09T09:02:23;6.60;99.90
12470;DHT22;36499;46.484;13.832;2023-04-09T09:04:50;6.70;99.90
12470;DHT22;36499;46.484;13.832;2023-04-09T09:07:19;6.80;99.90
12470;DHT22;36499;46.484;13.832;2023-04-09T09:09:52;6.80;99.90
12470;DHT22;36499;46.484;13.832;2023-04-09T09:12:33;6.80;99.90
12470;DHT22;36499;46.484;13.832;2023-04-09T09:15:03;6.80;99.90
12470;DHT22;36499;46.484;13.832;2023-04-09T09:17:33;6.90;99.90
12470;DHT22;36499;46.484;13.832;2023-04-09T09:20:19;6.90;99.90
12470;DHT22;36499;46.484;13.832;2023-04-09T09:22:51;6.90;99.90
12470;DHT22;36499;46.484;13.832;2023-04-09T09:25:20;7.00;99.90
12470;DHT22;36499;46.484;13.832;2023-04-09T09:27:50;7.00;99.90
12470;DHT22;36499;46.484;13.832;2023-04-09T09:30:21;7.00;99.90
12470;DHT22;36499;46.484;13.832;2023-04-09T09:32:51;7.10;99.90
12470;DHT22;36499;46.484;13.832;2023-04-09T09:35:19;7.10;99.90
12470;DHT22;36499;46.484;13.832;2023-04-09T09:37:46;7.20;99.90
12470;DHT22;36499;46.484;13.832;2023-04-09T09:40:26;7.30;99.90
12470;DHT22;36499;46.484;13.832;2023-04-09T09:42:54;7.40;99.90
12470;DHT22;36499;46.484;13.832;2023-04-09T09:45:23;7.40;99.90
12470;DHT22;36499;46.484;13.832;2023-04-09T09:47:51;7.40;99.90
12470;DHT22;36499;46.484;13.832;2023-04-09T09:50:22;7.50;99.90
12470;DHT22;36499;46.484;13.832;2023-04-09T09:52:53;7.50;99.90
12470;DHT22;36499;46.484;13.832;2023-04-09T09:55:29;7.60;99.90
12470;DHT22;36499;46.484;13.832;2023-04-09T09:58:00;7.60;99.90
12470;DHT22;36499;46.484;13.832;2023-04-09T10:00:30;7.90;99.90
12470;DHT22;36499;46.484;13.832;2023-04-09T10:03:04;8.40;99.90
12470;DHT22;36499;46.484;13.832;2023-04-09T10:05:36;8.70;99.90
12470;DHT22;36499;46.484;13.832;2023-04-09T10:08:06;9.00;99.90
12470;DHT22;36499;46.484;13.832;2023-04-09T10:10:35;9.00;99.90
12470;DHT22;36499;46.484;13.832;2023-04-09T10:13:05;9.00;99.90
12470;DHT22;36499;46.484;13.832;2023-04-09T10:15:34;9.00;99.90
12470;DHT22;36499;46.484;13.832;2023-04-09T10:18:01;9.00;99.90
12470;DHT22;36499;46.484;13.832;2023-04-09T10:20:33;9.00;99.90
12470;DHT22;36499;46.484;13.832;2023-04-09T10:23:14;9.00;99.90
12470;DHT22;36499;46.484;13.832;2023-04-09T10:25:52;9.10;99.90
12470;DHT22;36499;46.484;13.832;2023-04-09T10:28:19;9.20;99.90
12470;DHT22;36499;46.484;13.832;2023-04-09T10:30:48;9.30;99.90
12470;DHT22;36499;46.484;13.832;2023-04-09T10:33:21;9.20;99.90
12470;DHT22;36499;46.484;13.832;2023-04-09T10:35:51;9.10;99.90
12470;DHT22;36499;46.484;13.832;2023-04-09T10:38:38;9.20;99.90
12470;DHT22;36499;46.484;13.832;2023-04-09T10:41:10;9.10;99.90
12470;DHT22;36499;46.484;13.832;2023-04-09T10:43:40;8.90;99.90
12470;DHT22;36499;46.484;13.832;2023-04-09T10:46:26;8.70;99.90
12470;DHT22;36499;46.484;13.832;2023-04-09T10:49:07;8.50;99.90
12470;DHT22;36499;46.484;13.832;2023-04-09T10:51:38;8.20;99.90
12470;DHT22;36499;46.484;13.832;2023-04-09T10:54:13;8.00;99.90
12470;DHT22;36499;46.484;13.832;2023-04-09T10:57:19;7.80;99.90
12470;DHT22;36499;46.484;13.832;2023-04-09T10:59:49;7.60;99.90
12470;DHT22;36499;46.484;13.832;2023-04-09T11:02:53;7.50;99.90
12470;DHT22;36499;46.484;13.832;2023-04-09T11:05:40;7.50;99.90
12470;DHT22;36499;46.484;13.832;2023-04-09T11:08:10;7.60;99.90
12470;DHT22;36499;46.484;13.832;2023-04-09T11:10:40;7.80;99.90
12470;DHT22;36499;46.484;13.832;2023-04-09T11:13:11;8.00;99.90
12470;DHT22;36499;46.484;13.832;2023-04-09T11:15:39;8.20;99.90
12470;DHT22;36499;46.484;13.832;2023-04-09T11:18:07;8.50;99.90
12470;DHT22;36499;46.484;13.832;2023-04-09T11:20:37;8.70;99.90
12470;DHT22;36499;46.484;13.832;2023-04-09T11:23:05;8.70;99.90
12470;DHT22;36499;46.484;13.832;2023-04-09T11:25:33;8.80;99.90
12470;DHT22;36499;46.484;13.832;2023-04-09T11:28:02;8.80;99.90
12470;DHT22;36499;46.484;13.832;2023-04-09T11:30:31;8.90;99.90
12470;DHT22;36499;46.484;13.832;2023-04-09T11:33:00;9.10;99.90
12470;DHT22;36499;46.484;13.832;2023-04-09T11:35:27;9.50;99.90
12470;DHT22;36499;46.484;13.832;2023-04-09T11:37:55;9.90;99.90
12470;DHT22;36499;46.484;13.832;2023-04-09T11:40:23;10.00;99.90
12470;DHT22;36499;46.484;13.832;2023-04-09T11:42:52;9.90;99.90
12470;DHT22;36499;46.484;13.832;2023-04-09T11:45:23;9.70;99.90
12470;DHT22;36499;46.484;13.832;2023-04-09T11:47:52;9.60;99.90
12470;DHT22;36499;46.484;13.832;2023-04-09T11:50:20;9.60;99.90
12470;DHT22;36499;46.484;13.832;2023-04-09T11:52:48;9.50;99.90
12470;DHT22;36499;46.484;13.832;2023-04-09T11:55:23;9.30;99.70
12470;DHT22;36499;46.484;13.832;2023-04-09T11:57:52;9.10;99.60
12470;DHT22;36499;46.484;13.832;2023-04-09T12:00:22;8.90;99.70
12470;DHT22;36499;46.484;13.832;2023-04-09T12:02:50;8.70;99.90
12470;DHT22;36499;46.484;13.832;2023-04-09T12:05:25;8.50;98.70
12470;DHT22;36499;46.484;13.832;2023-04-09T12:07:56;8.20;98.70
12470;DHT22;36499;46.484;13.832;2023-04-09T12:10:26;8.10;99.40
12470;DHT22;36499;46.484;13.832;2023-04-09T12:12:59;8.10;99.50
12470;DHT22;36499;46.484;13.832;2023-04-09T12:15:31;8.00;99.20
12470;DHT22;36499;46.484;13.832;2023-04-09T12:18:00;7.90;98.70
12470;DHT22;36499;46.484;13.832;2023-04-09T12:20:32;7.90;99.10
12470;DHT22;36499;46.484;13.832;2023-04-09T12:23:03;7.90;99.20
12470;DHT22;36499;46.484;13.832;2023-04-09T12:25:33;7.70;99.90
12470;DHT22;36499;46.484;13.832;2023-04-09T12:28:01;7.10;99.90
12470;DHT22;36499;46.484;13.832;2023-04-09T12:30:29;6.20;99.90
12470;DHT22;36499;46.484;13.832;2023-04-09T12:32:58;5.90;99.90
12470;DHT22;36499;46.484;13.832;2023-04-09T12:35:26;6.00;99.90
12470;DHT22;36499;46.484;13.832;2023-04-09T12:37:54;6.00;99.90
12470;DHT22;36499;46.484;13.832;2023-04-09T12:40:21;6.00;99.90
12470;DHT22;36499;46.484;13.832;2023-04-09T12:42:48;6.10;99.90
12470;DHT22;36499;46.484;13.832;2023-04-09T12:45:17;6.20;99.90
12470;DHT22;36499;46.484;13.832;2023-04-09T12:47:45;6.30;99.90
12470;DHT22;36499;46.484;13.832;2023-04-09T12:50:14;6.40;99.90
12470;DHT22;36499;46.484;13.832;2023-04-09T12:52:41;6.40;99.90
12470;DHT22;36499;46.484;13.832;2023-04-09T12:55:09;6.50;99.90
12470;DHT22;36499;46.484;13.832;2023-04-09T12:57:38;6.50;99.90
12470;DHT22;36499;46.484;13.832;2023-04-09T13:00:08;6.70;99.90
12470;DHT22;36499;46.484;13.832;2023-04-09T13:02:35;6.80;99.90
12470;DHT22;36499;46.484;13.832;2023-04-09T13:05:03;6.80;99.90
12470;DHT22;36499;46.484;13.832;2023-04-09T13:07:32;6.70;99.90
12470;DHT22;36499;46.484;13.832;2023-04-09T13:09:59;6.70;99.90
12470;DHT22;36499;46.484;13.832;2023-04-09T13:12:26;6.50;99.90
12470;DHT22;36499;46.484;13.832;2023-04-09T13:14:54;6.40;99.90
12470;DHT22;36499;46.484;13.832;2023-04-09T13:17:21;6.20;99.90
12470;DHT22;36499;46.484;13.832;2023-04-09T13:19:49;6.20;99.90
12470;DHT22;36499;46.484;13.832;2023-04-09T13:22:16;6.30;99.90
12470;DHT22;36499;46.484;13.832;2023-04-09T13:24:45;6.30;99.90
12470;DHT22;36499;46.484;13.832;2023-04-09T13:27:12;6.40;99.90
12470;DHT22;36499;46.484;13.832;2023-04-09T13:29:40;6.40;99.90
12470;DHT22;36499;46.484;13.832;2023-04-09T13:32:07;6.30;99.90
12470;DHT22;36499;46.484;13.832;2023-04-09T13:34:35;6.50;99.90
12470;DHT22;36499;46.484;13.832;2023-04-09T13:37:03;6.50;99.90
12470;DHT22;36499;46.484;13.832;2023-04-09T13:39:30;6.50;99.90
12470;DHT22;36499;46.484;13.832;2023-04-09T13:41:59;6.40;99.90
12470;DHT22;36499;46.484;13.832;2023-04-09T13:44:26;6.30;99.90
12470;DHT22;36499;46.484;13.832;2023-04-09T13:46:53;6.10;99.90
12470;DHT22;36499;46.484;13.832;2023-04-09T13:49:21;6.00;99.90
12470;DHT22;36499;46.484;13.832;2023-04-09T13:51:48;5.90;99.90
12470;DHT22;36499;46.484;13.832;2023-04-09T13:54:15;5.60;99.90
12470;DHT22;36499;46.484;13.832;2023-04-09T13:56:43;5.70;99.90
12470;DHT22;36499;46.484;13.832;2023-04-09T13:59:12;5.50;99.90
12470;DHT22;36499;46.484;13.832;2023-04-09T14:01:39;5.50;99.90
12470;DHT22;36499;46.484;13.832;2023-04-09T14:04:06;5.50;99.90
12470;DHT22;36499;46.484;13.832;2023-04-09T14:06:34;5.50;99.90
12470;DHT22;36499;46.484;13.832;2023-04-09T14:09:01;5.40;99.90
12470;DHT22;36499;46.484;13.832;2023-04-09T14:11:28;5.50;99.90
12470;DHT22;36499;46.484;13.832;2023-04-09T14:13:55;5.60;99.90
12470;DHT22;36499;46.484;13.832;2023-04-09T14:16:24;5.60;99.90
12470;DHT22;36499;46.484;13.832;2023-04-09T14:18:52;5.70;99.90
12470;DHT22;36499;46.484;13.832;2023-04-09T14:21:19;5.70;99.90
12470;DHT22;36499;46.484;13.832;2023-04-09T14:23:47;5.70;99.90
12470;DHT22;36499;46.484;13.832;2023-04-09T14:26:14;5.80;99.90
12470;DHT22;36499;46.484;13.832;2023-04-09T14:28:41;5.90;99.90
12470;DHT22;36499;46.484;13.832;2023-04-09T14:31:09;5.90;99.90
12470;DHT22;36499;46.484;13.832;2023-04-09T14:33:38;6.10;99.90
12470;DHT22;36499;46.484;13.832;2023-04-09T14:36:06;6.20;99.90
12470;DHT22;36499;46.484;13.832;2023-04-09T14:38:33;6.20;99.90
12470;DHT22;36499;46.484;13.832;2023-04-09T14:41:01;6.10;99.90
12470;DHT22;36499;46.484;13.832;2023-04-09T14:43:28;6.10;99.90
12470;DHT22;36499;46.484;13.832;2023-04-09T14:45:55;6.10;99.90
12470;DHT22;36499;46.484;13.832;2023-04-09T14:48:22;6.10;99.90
12470;DHT22;36499;46.484;13.832;2023-04-09T14:50:50;6.10;99.90
12470;DHT22;36499;46.484;13.832;2023-04-09T14:53:17;6.00;99.90
12470;DHT22;36499;46.484;13.832;2023-04-09T14:55:45;5.90;99.90
12470;DHT22;36499;46.484;13.832;2023-04-09T14:58:12;5.80;99.90
12470;DHT22;36499;46.484;13.832;2023-04-09T15:00:39;5.80;99.90
12470;DHT22;36499;46.484;13.832;2023-04-09T15:03:06;5.60;99.90
12470;DHT22;36499;46.484;13.832;2023-04-09T15:05:33;5.60;99.90
12470;DHT22;36499;46.484;13.832;2023-04-09T15:08:02;5.50;99.90
12470;DHT22;36499;46.484;13.832;2023-04-09T15:10:29;5.40;99.90
12470;DHT22;36499;46.484;13.832;2023-04-09T15:12:56;5.10;99.90
12470;DHT22;36499;46.484;13.832;2023-04-09T15:15:23;5.10;99.90
12470;DHT22;36499;46.484;13.832;2023-04-09T15:17:52;5.00;99.90
12470;DHT22;36499;46.484;13.832;2023-04-09T15:20:19;5.00;99.90
12470;DHT22;36499;46.484;13.832;2023-04-09T15:22:46;4.90;99.90
12470;DHT22;36499;46.484;13.832;2023-04-09T15:25:15;4.90;99.90
12470;DHT22;36499;46.484;13.832;2023-04-09T15:27:42;4.90;99.90
12470;DHT22;36499;46.484;13.832;2023-04-09T15:30:09;4.90;99.90
12470;DHT22;36499;46.484;13.832;2023-04-09T15:32:36;4.80;99.90
12470;DHT22;36499;46.484;13.832;2023-04-09T15:35:04;4.70;99.90
12470;DHT22;36499;46.484;13.832;2023-04-09T15:37:31;4.60;99.90
12470;DHT22;36499;46.484;13.832;2023-04-09T15:39:58;4.50;99.90